sensor_id;sensor_type;location;lat;lon;timestamp;P1;durP1;ratioP1;P2;durP2;ratioP2
40787;SDS011;26497;52.494;7.546;2022-11-20T00:02:20;45.22;;;15.57;;
40787;SDS011;26497;52.494;7.546;2022-11-20T00:04:47;42.13;;;13.98;;
40787;SDS011;26497;52.494;7.546;2022-11-20T00:07:14;32.90;;;14.20;;
40787;SDS011;26497;52.494;7.546;2022-11-20T00:09:41;31.83;;;14.55;;
40787;SDS011;26497;52.494;7.546;2022-11-20T00:12:08;38.95;;;15.23;;
40787;SDS011;26497;52.494;7.546;2022-11-20T00:14:35;32.50;;;12.88;;
40787;SDS011;26497;52.494;7.546;2022-11-20T00:17:02;33.85;;;13.27;;
40787;SDS011;26497;52.494;7.546;2022-11-20T00:19:30;30.27;;;12.98;;
40787;SDS011;26497;52.494;7.546;2022-11-20T00:21:57;29.33;;;11.68;;
40787;SDS011;26497;52.494;7.546;2022-11-20T00:24:24;25.90;;;12.05;;
40787;SDS011;26497;52.494;7.546;2022-11-20T00:26:51;28.10;;;11.55;;
40787;SDS011;26497;52.494;7.546;2022-11-20T00:29:18;25.85;;;10.82;;
40787;SDS011;26497;52.494;7.546;2022-11-20T00:31:45;25.10;;;11.90;;
40787;SDS011;26497;52.494;7.546;2022-11-20T00:34:12;28.30;;;10.43;;
40787;SDS011;26497;52.494;7.546;2022-11-20T00:36:40;32.30;;;11.52;;
40787;SDS011;26497;52.494;7.546;2022-11-20T00:39:07;33.88;;;11.57;;
40787;SDS011;26497;52.494;7.546;2022-11-20T00:41:34;36.25;;;12.45;;
40787;SDS011;26497;52.494;7.546;2022-11-20T00:44:01;25.63;;;12.05;;
40787;SDS011;26497;52.494;7.546;2022-11-20T00:46:28;31.38;;;11.88;;
40787;SDS011;26497;52.494;7.546;2022-11-20T00:48:56;33.05;;;12.07;;
40787;SDS011;26497;52.494;7.546;2022-11-20T00:51:24;25.98;;;11.77;;
40787;SDS011;26497;52.494;7.546;2022-11-20T00:53:55;24.40;;;10.52;;
40787;SDS011;26497;52.494;7.546;2022-11-20T00:56:25;28.90;;;11.57;;
40787;SDS011;26497;52.494;7.546;2022-11-20T00:58:52;26.10;;;12.02;;
40787;SDS011;26497;52.494;7.546;2022-11-20T01:01:20;31.10;;;11.93;;
40787;SDS011;26497;52.494;7.546;2022-11-20T01:03:50;31.60;;;12.45;;
40787;SDS011;26497;52.494;7.546;2022-11-20T01:06:19;23.98;;;11.13;;
40787;SDS011;26497;52.494;7.546;2022-11-20T01:08:48;29.05;;;11.10;;
40787;SDS011;26497;52.494;7.546;2022-11-20T01:11:19;31.35;;;11.93;;
40787;SDS011;26497;52.494;7.546;2022-11-20T01:13:48;30.17;;;11.88;;
40787;SDS011;26497;52.494;7.546;2022-11-20T01:16:18;32.58;;;12.15;;
40787;SDS011;26497;52.494;7.546;2022-11-20T01:18:47;24.30;;;9.80;;
40787;SDS011;26497;52.494;7.546;2022-11-20T01:21:16;31.55;;;11.55;;
40787;SDS011;26497;52.494;7.546;2022-11-20T01:23:46;22.52;;;10.43;;
40787;SDS011;26497;52.494;7.546;2022-11-20T01:26:15;22.40;;;10.05;;
40787;SDS011;26497;52.494;7.546;2022-11-20T01:28:45;26.00;;;9.23;;
40787;SDS011;26497;52.494;7.546;2022-11-20T01:31:13;21.27;;;8.52;;
40787;SDS011;26497;52.494;7.546;2022-11-20T01:33:43;26.88;;;9.23;;
40787;SDS011;26497;52.494;7.546;2022-11-20T01:36:14;21.85;;;9.40;;
40787;SDS011;26497;52.494;7.546;2022-11-20T01:38:42;26.08;;;10.02;;
40787;SDS011;26497;52.494;7.546;2022-11-20T01:41:10;22.45;;;10.25;;
40787;SDS011;26497;52.494;7.546;2022-11-20T01:44:01;20.90;;;9.52;;
40787;SDS011;26497;52.494;7.546;2022-11-20T01:46:28;26.27;;;9.85;;
40787;SDS011;26497;52.494;7.546;2022-11-20T01:48:57;22.95;;;9.75;;
40787;SDS011;26497;52.494;7.546;2022-11-20T01:54:00;26.05;;;10.63;;
40787;SDS011;26497;52.494;7.546;2022-11-20T01:59:04;33.05;;;8.98;;
40787;SDS011;26497;52.494;7.546;2022-11-20T02:01:33;28.60;;;11.23;;
40787;SDS011;26497;52.494;7.546;2022-11-20T02:04:01;24.70;;;11.32;;
40787;SDS011;26497;52.494;7.546;2022-11-20T02:06:29;24.65;;;11.05;;
40787;SDS011;26497;52.494;7.546;2022-11-20T02:09:01;27.33;;;10.90;;
40787;SDS011;26497;52.494;7.546;2022-11-20T02:11:29;33.63;;;12.77;;
40787;SDS011;26497;52.494;7.546;2022-11-20T02:13:57;23.23;;;12.05;;
40787;SDS011;26497;52.494;7.546;2022-11-20T02:16:26;27.80;;;12.10;;
40787;SDS011;26497;52.494;7.546;2022-11-20T02:18:59;28.88;;;11.98;;
40787;SDS011;26497;52.494;7.546;2022-11-20T02:21:30;31.23;;;12.18;;
40787;SDS011;26497;52.494;7.546;2022-11-20T02:24:05;28.45;;;14.13;;
40787;SDS011;26497;52.494;7.546;2022-11-20T02:26:38;28.95;;;12.70;;
40787;SDS011;26497;52.494;7.546;2022-11-20T02:29:15;27.90;;;11.77;;
40787;SDS011;26497;52.494;7.546;2022-11-20T02:31:45;25.88;;;11.68;;
40787;SDS011;26497;52.494;7.546;2022-11-20T02:34:13;31.83;;;12.93;;
40787;SDS011;26497;52.494;7.546;2022-11-20T02:36:40;31.77;;;12.13;;
40787;SDS011;26497;52.494;7.546;2022-11-20T02:39:10;24.02;;;10.50;;
40787;SDS011;26497;52.494;7.546;2022-11-20T02:41:41;26.10;;;11.02;;
40787;SDS011;26497;52.494;7.546;2022-11-20T02:44:09;26.00;;;11.35;;
40787;SDS011;26497;52.494;7.546;2022-11-20T02:46:36;33.42;;;12.40;;
40787;SDS011;26497;52.494;7.546;2022-11-20T02:49:03;26.90;;;12.35;;
40787;SDS011;26497;52.494;7.546;2022-11-20T02:51:31;29.77;;;11.88;;
40787;SDS011;26497;52.494;7.546;2022-11-20T02:53:58;28.33;;;12.20;;
40787;SDS011;26497;52.494;7.546;2022-11-20T02:56:27;26.02;;;10.95;;
40787;SDS011;26497;52.494;7.546;2022-11-20T02:58:54;23.73;;;11.25;;
40787;SDS011;26497;52.494;7.546;2022-11-20T03:01:21;29.13;;;12.05;;
40787;SDS011;26497;52.494;7.546;2022-11-20T03:03:48;26.10;;;10.85;;
40787;SDS011;26497;52.494;7.546;2022-11-20T03:06:15;24.98;;;11.10;;
40787;SDS011;26497;52.494;7.546;2022-11-20T03:08:43;20.52;;;9.45;;
40787;SDS011;26497;52.494;7.546;2022-11-20T03:11:10;22.52;;;10.13;;
40787;SDS011;26497;52.494;7.546;2022-11-20T03:13:38;21.67;;;8.70;;
40787;SDS011;26497;52.494;7.546;2022-11-20T03:16:06;24.05;;;10.00;;
40787;SDS011;26497;52.494;7.546;2022-11-20T03:18:35;22.70;;;10.70;;
40787;SDS011;26497;52.494;7.546;2022-11-20T03:21:02;29.30;;;11.80;;
40787;SDS011;26497;52.494;7.546;2022-11-20T03:23:30;29.05;;;10.48;;
40787;SDS011;26497;52.494;7.546;2022-11-20T03:26:08;19.33;;;9.77;;
40787;SDS011;26497;52.494;7.546;2022-11-20T03:28:40;21.08;;;9.68;;
40787;SDS011;26497;52.494;7.546;2022-11-20T03:31:08;21.80;;;10.15;;
40787;SDS011;26497;52.494;7.546;2022-11-20T03:33:37;22.10;;;11.18;;
40787;SDS011;26497;52.494;7.546;2022-11-20T03:36:06;26.35;;;11.27;;
40787;SDS011;26497;52.494;7.546;2022-11-20T03:38:35;25.85;;;10.70;;
40787;SDS011;26497;52.494;7.546;2022-11-20T03:41:04;24.83;;;11.10;;
40787;SDS011;26497;52.494;7.546;2022-11-20T03:43:34;22.30;;;10.60;;
40787;SDS011;26497;52.494;7.546;2022-11-20T03:46:03;25.13;;;10.18;;
40787;SDS011;26497;52.494;7.546;2022-11-20T03:48:31;24.33;;;11.23;;
40787;SDS011;26497;52.494;7.546;2022-11-20T03:51:08;21.33;;;10.25;;
40787;SDS011;26497;52.494;7.546;2022-11-20T03:53:36;24.95;;;10.57;;
40787;SDS011;26497;52.494;7.546;2022-11-20T03:56:04;24.13;;;9.75;;
40787;SDS011;26497;52.494;7.546;2022-11-20T03:58:32;27.77;;;11.13;;
40787;SDS011;26497;52.494;7.546;2022-11-20T04:01:05;24.55;;;11.30;;
40787;SDS011;26497;52.494;7.546;2022-11-20T04:03:34;24.77;;;9.90;;
40787;SDS011;26497;52.494;7.546;2022-11-20T04:06:03;26.20;;;11.40;;
40787;SDS011;26497;52.494;7.546;2022-11-20T04:08:32;28.35;;;10.95;;
40787;SDS011;26497;52.494;7.546;2022-11-20T04:11:09;22.45;;;10.25;;
40787;SDS011;26497;52.494;7.546;2022-11-20T04:13:38;23.30;;;11.23;;
40787;SDS011;26497;52.494;7.546;2022-11-20T04:16:08;28.70;;;13.27;;
40787;SDS011;26497;52.494;7.546;2022-11-20T04:18:36;34.05;;;13.10;;
40787;SDS011;26497;52.494;7.546;2022-11-20T04:21:03;29.00;;;11.77;;
40787;SDS011;26497;52.494;7.546;2022-11-20T04:23:31;26.92;;;12.27;;
40787;SDS011;26497;52.494;7.546;2022-11-20T04:26:02;26.63;;;9.55;;
40787;SDS011;26497;52.494;7.546;2022-11-20T04:28:30;21.33;;;10.02;;
40787;SDS011;26497;52.494;7.546;2022-11-20T04:31:01;20.25;;;10.27;;
40787;SDS011;26497;52.494;7.546;2022-11-20T04:33:31;34.30;;;12.07;;
40787;SDS011;26497;52.494;7.546;2022-11-20T04:36:03;31.70;;;13.20;;
40787;SDS011;26497;52.494;7.546;2022-11-20T04:38:32;25.58;;;11.15;;
40787;SDS011;26497;52.494;7.546;2022-11-20T04:40:59;32.83;;;12.70;;
40787;SDS011;26497;52.494;7.546;2022-11-20T04:43:32;34.15;;;13.55;;
40787;SDS011;26497;52.494;7.546;2022-11-20T04:46:00;28.52;;;12.88;;
40787;SDS011;26497;52.494;7.546;2022-11-20T04:48:28;37.88;;;13.95;;
40787;SDS011;26497;52.494;7.546;2022-11-20T04:50:57;26.70;;;11.88;;
40787;SDS011;26497;52.494;7.546;2022-11-20T04:53:28;24.20;;;11.40;;
40787;SDS011;26497;52.494;7.546;2022-11-20T04:55:58;38.25;;;12.90;;
40787;SDS011;26497;52.494;7.546;2022-11-20T04:58:26;32.88;;;12.68;;
40787;SDS011;26497;52.494;7.546;2022-11-20T05:00:53;30.55;;;12.25;;
40787;SDS011;26497;52.494;7.546;2022-11-20T05:03:28;33.60;;;13.60;;
40787;SDS011;26497;52.494;7.546;2022-11-20T05:05:57;34.85;;;13.30;;
40787;SDS011;26497;52.494;7.546;2022-11-20T05:08:27;31.40;;;13.55;;
40787;SDS011;26497;52.494;7.546;2022-11-20T05:10:58;25.42;;;12.45;;
40787;SDS011;26497;52.494;7.546;2022-11-20T05:13:27;30.45;;;14.18;;
40787;SDS011;26497;52.494;7.546;2022-11-20T05:15:54;33.83;;;14.52;;
40787;SDS011;26497;52.494;7.546;2022-11-20T05:18:21;38.10;;;13.85;;
40787;SDS011;26497;52.494;7.546;2022-11-20T05:20:54;37.70;;;14.30;;
40787;SDS011;26497;52.494;7.546;2022-11-20T05:23:23;33.97;;;13.48;;
40787;SDS011;26497;52.494;7.546;2022-11-20T05:25:51;32.05;;;14.07;;
40787;SDS011;26497;52.494;7.546;2022-11-20T05:28:19;35.30;;;13.45;;
40787;SDS011;26497;52.494;7.546;2022-11-20T05:30:46;34.45;;;14.73;;
40787;SDS011;26497;52.494;7.546;2022-11-20T05:33:14;33.22;;;13.95;;
40787;SDS011;26497;52.494;7.546;2022-11-20T05:35:41;29.50;;;14.38;;
40787;SDS011;26497;52.494;7.546;2022-11-20T05:38:09;30.25;;;13.57;;
40787;SDS011;26497;52.494;7.546;2022-11-20T05:40:37;33.63;;;14.45;;
40787;SDS011;26497;52.494;7.546;2022-11-20T05:43:04;30.58;;;13.65;;
40787;SDS011;26497;52.494;7.546;2022-11-20T05:45:31;32.30;;;14.75;;
40787;SDS011;26497;52.494;7.546;2022-11-20T05:47:58;27.80;;;14.20;;
40787;SDS011;26497;52.494;7.546;2022-11-20T05:50:26;30.83;;;13.52;;
40787;SDS011;26497;52.494;7.546;2022-11-20T05:52:53;33.10;;;15.43;;
40787;SDS011;26497;52.494;7.546;2022-11-20T05:55:20;32.63;;;14.52;;
40787;SDS011;26497;52.494;7.546;2022-11-20T05:57:49;36.75;;;14.80;;
40787;SDS011;26497;52.494;7.546;2022-11-20T06:00:16;31.13;;;13.15;;
40787;SDS011;26497;52.494;7.546;2022-11-20T06:02:43;30.80;;;13.07;;
40787;SDS011;26497;52.494;7.546;2022-11-20T06:05:10;30.30;;;13.95;;
40787;SDS011;26497;52.494;7.546;2022-11-20T06:07:37;33.45;;;14.32;;
40787;SDS011;26497;52.494;7.546;2022-11-20T06:10:05;31.23;;;12.73;;
40787;SDS011;26497;52.494;7.546;2022-11-20T06:12:32;26.77;;;14.60;;
40787;SDS011;26497;52.494;7.546;2022-11-20T06:15:00;36.95;;;14.05;;
40787;SDS011;26497;52.494;7.546;2022-11-20T06:17:27;28.25;;;14.70;;
40787;SDS011;26497;52.494;7.546;2022-11-20T06:19:54;27.42;;;13.48;;
40787;SDS011;26497;52.494;7.546;2022-11-20T06:22:21;31.75;;;13.57;;
40787;SDS011;26497;52.494;7.546;2022-11-20T06:24:48;29.90;;;13.88;;
40787;SDS011;26497;52.494;7.546;2022-11-20T06:27:15;36.13;;;15.65;;
40787;SDS011;26497;52.494;7.546;2022-11-20T06:29:42;29.58;;;14.63;;
40787;SDS011;26497;52.494;7.546;2022-11-20T06:32:11;27.27;;;12.77;;
40787;SDS011;26497;52.494;7.546;2022-11-20T06:34:38;28.73;;;14.05;;
40787;SDS011;26497;52.494;7.546;2022-11-20T06:37:05;33.50;;;14.55;;
40787;SDS011;26497;52.494;7.546;2022-11-20T06:39:32;32.45;;;13.60;;
40787;SDS011;26497;52.494;7.546;2022-11-20T06:41:59;30.73;;;13.07;;
40787;SDS011;26497;52.494;7.546;2022-11-20T06:44:26;25.38;;;12.80;;
40787;SDS011;26497;52.494;7.546;2022-11-20T06:46:53;33.75;;;14.85;;
40787;SDS011;26497;52.494;7.546;2022-11-20T06:49:21;31.40;;;15.23;;
40787;SDS011;26497;52.494;7.546;2022-11-20T06:51:48;36.15;;;15.32;;
40787;SDS011;26497;52.494;7.546;2022-11-20T06:54:15;29.08;;;14.00;;
40787;SDS011;26497;52.494;7.546;2022-11-20T06:56:42;40.72;;;16.55;;
40787;SDS011;26497;52.494;7.546;2022-11-20T06:59:13;31.98;;;16.17;;
40787;SDS011;26497;52.494;7.546;2022-11-20T07:01:40;31.95;;;16.05;;
40787;SDS011;26497;52.494;7.546;2022-11-20T07:04:07;34.05;;;14.82;;
40787;SDS011;26497;52.494;7.546;2022-11-20T07:06:36;33.13;;;15.43;;
40787;SDS011;26497;52.494;7.546;2022-11-20T07:09:03;27.80;;;14.23;;
40787;SDS011;26497;52.494;7.546;2022-11-20T07:11:30;25.55;;;13.80;;
40787;SDS011;26497;52.494;7.546;2022-11-20T07:13:57;29.75;;;14.02;;
40787;SDS011;26497;52.494;7.546;2022-11-20T07:16:24;30.90;;;15.75;;
40787;SDS011;26497;52.494;7.546;2022-11-20T07:18:51;31.63;;;15.13;;
40787;SDS011;26497;52.494;7.546;2022-11-20T07:21:18;31.42;;;14.32;;
40787;SDS011;26497;52.494;7.546;2022-11-20T07:23:47;31.40;;;15.32;;
40787;SDS011;26497;52.494;7.546;2022-11-20T07:26:14;37.10;;;16.75;;
40787;SDS011;26497;52.494;7.546;2022-11-20T07:28:43;37.75;;;15.68;;
40787;SDS011;26497;52.494;7.546;2022-11-20T07:31:11;46.35;;;16.65;;
40787;SDS011;26497;52.494;7.546;2022-11-20T07:33:38;38.10;;;17.50;;
40787;SDS011;26497;52.494;7.546;2022-11-20T07:36:05;34.35;;;14.98;;
40787;SDS011;26497;52.494;7.546;2022-11-20T07:38:32;31.65;;;15.63;;
40787;SDS011;26497;52.494;7.546;2022-11-20T07:41:01;34.83;;;16.15;;
40787;SDS011;26497;52.494;7.546;2022-11-20T07:43:28;33.42;;;16.50;;
40787;SDS011;26497;52.494;7.546;2022-11-20T07:45:55;39.53;;;17.48;;
40787;SDS011;26497;52.494;7.546;2022-11-20T07:48:23;38.95;;;16.77;;
40787;SDS011;26497;52.494;7.546;2022-11-20T07:50:52;39.85;;;18.52;;
40787;SDS011;26497;52.494;7.546;2022-11-20T07:53:20;37.47;;;16.83;;
40787;SDS011;26497;52.494;7.546;2022-11-20T07:55:47;40.25;;;19.13;;
40787;SDS011;26497;52.494;7.546;2022-11-20T07:58:18;46.17;;;19.65;;
40787;SDS011;26497;52.494;7.546;2022-11-20T08:00:45;35.63;;;17.40;;
40787;SDS011;26497;52.494;7.546;2022-11-20T08:03:13;46.97;;;20.05;;
40787;SDS011;26497;52.494;7.546;2022-11-20T08:05:40;45.42;;;21.27;;
40787;SDS011;26497;52.494;7.546;2022-11-20T08:08:07;39.78;;;19.83;;
40787;SDS011;26497;52.494;7.546;2022-11-20T08:10:34;43.10;;;17.77;;
40787;SDS011;26497;52.494;7.546;2022-11-20T08:13:00;39.25;;;18.48;;
40787;SDS011;26497;52.494;7.546;2022-11-20T08:16:01;46.42;;;20.27;;
40787;SDS011;26497;52.494;7.546;2022-11-20T08:18:28;52.75;;;21.77;;
40787;SDS011;26497;52.494;7.546;2022-11-20T08:20:55;39.50;;;19.38;;
40787;SDS011;26497;52.494;7.546;2022-11-20T08:23:22;37.78;;;19.75;;
40787;SDS011;26497;52.494;7.546;2022-11-20T08:25:49;39.60;;;14.93;;
40787;SDS011;26497;52.494;7.546;2022-11-20T08:28:17;30.50;;;15.27;;
40787;SDS011;26497;52.494;7.546;2022-11-20T08:30:44;31.90;;;16.30;;
40787;SDS011;26497;52.494;7.546;2022-11-20T08:33:12;32.40;;;15.73;;
40787;SDS011;26497;52.494;7.546;2022-11-20T08:35:39;36.47;;;15.25;;
40787;SDS011;26497;52.494;7.546;2022-11-20T08:38:08;40.17;;;16.65;;
40787;SDS011;26497;52.494;7.546;2022-11-20T08:40:35;35.28;;;16.55;;
40787;SDS011;26497;52.494;7.546;2022-11-20T08:43:02;35.10;;;16.77;;
40787;SDS011;26497;52.494;7.546;2022-11-20T08:45:29;33.92;;;15.52;;
40787;SDS011;26497;52.494;7.546;2022-11-20T08:47:59;36.35;;;15.35;;
40787;SDS011;26497;52.494;7.546;2022-11-20T08:50:28;30.85;;;14.85;;
40787;SDS011;26497;52.494;7.546;2022-11-20T08:53:01;39.78;;;16.30;;
40787;SDS011;26497;52.494;7.546;2022-11-20T08:55:29;42.38;;;19.80;;
40787;SDS011;26497;52.494;7.546;2022-11-20T08:57:56;63.35;;;31.48;;
40787;SDS011;26497;52.494;7.546;2022-11-20T09:00:23;53.47;;;25.77;;
40787;SDS011;26497;52.494;7.546;2022-11-20T09:02:51;46.60;;;22.20;;
40787;SDS011;26497;52.494;7.546;2022-11-20T09:05:18;37.50;;;18.95;;
40787;SDS011;26497;52.494;7.546;2022-11-20T09:07:46;34.08;;;17.85;;
40787;SDS011;26497;52.494;7.546;2022-11-20T09:10:13;36.00;;;15.52;;
40787;SDS011;26497;52.494;7.546;2022-11-20T09:12:40;43.53;;;22.55;;
40787;SDS011;26497;52.494;7.546;2022-11-20T09:15:08;32.03;;;18.25;;
40787;SDS011;26497;52.494;7.546;2022-11-20T09:17:36;33.67;;;17.50;;
40787;SDS011;26497;52.494;7.546;2022-11-20T09:20:03;29.50;;;15.85;;
40787;SDS011;26497;52.494;7.546;2022-11-20T09:22:31;31.90;;;16.33;;
40787;SDS011;26497;52.494;7.546;2022-11-20T09:25:00;38.50;;;18.08;;
40787;SDS011;26497;52.494;7.546;2022-11-20T09:27:27;34.58;;;18.52;;
40787;SDS011;26497;52.494;7.546;2022-11-20T09:29:54;35.72;;;17.95;;
40787;SDS011;26497;52.494;7.546;2022-11-20T09:32:21;34.65;;;17.65;;
40787;SDS011;26497;52.494;7.546;2022-11-20T09:34:48;40.13;;;18.92;;
40787;SDS011;26497;52.494;7.546;2022-11-20T09:37:15;35.53;;;17.83;;
40787;SDS011;26497;52.494;7.546;2022-11-20T09:39:42;37.83;;;18.92;;
40787;SDS011;26497;52.494;7.546;2022-11-20T09:42:24;34.63;;;18.42;;
40787;SDS011;26497;52.494;7.546;2022-11-20T09:45:12;34.42;;;17.33;;
40787;SDS011;26497;52.494;7.546;2022-11-20T09:47:52;36.40;;;18.85;;
40787;SDS011;26497;52.494;7.546;2022-11-20T09:50:38;36.55;;;18.70;;
40787;SDS011;26497;52.494;7.546;2022-11-20T09:53:13;43.38;;;18.77;;
40787;SDS011;26497;52.494;7.546;2022-11-20T09:55:53;36.38;;;18.88;;
40787;SDS011;26497;52.494;7.546;2022-11-20T09:58:24;31.83;;;16.58;;
40787;SDS011;26497;52.494;7.546;2022-11-20T10:00:58;32.95;;;17.63;;
40787;SDS011;26497;52.494;7.546;2022-11-20T10:03:37;35.25;;;16.58;;
40787;SDS011;26497;52.494;7.546;2022-11-20T10:06:17;30.65;;;16.08;;
40787;SDS011;26497;52.494;7.546;2022-11-20T10:08:48;24.80;;;13.88;;
40787;SDS011;26497;52.494;7.546;2022-11-20T10:11:28;30.48;;;16.52;;
40787;SDS011;26497;52.494;7.546;2022-11-20T10:14:08;25.40;;;14.23;;
40787;SDS011;26497;52.494;7.546;2022-11-20T10:16:50;25.45;;;14.82;;
40787;SDS011;26497;52.494;7.546;2022-11-20T10:19:31;33.60;;;16.50;;
40787;SDS011;26497;52.494;7.546;2022-11-20T10:22:17;34.50;;;17.48;;
40787;SDS011;26497;52.494;7.546;2022-11-20T10:25:00;28.25;;;16.35;;
40787;SDS011;26497;52.494;7.546;2022-11-20T10:27:38;31.65;;;14.48;;
40787;SDS011;26497;52.494;7.546;2022-11-20T10:30:27;26.85;;;14.38;;
40787;SDS011;26497;52.494;7.546;2022-11-20T10:32:56;26.38;;;14.52;;
40787;SDS011;26497;52.494;7.546;2022-11-20T10:35:32;26.95;;;14.45;;
40787;SDS011;26497;52.494;7.546;2022-11-20T10:38:06;21.60;;;12.35;;
40787;SDS011;26497;52.494;7.546;2022-11-20T10:40:40;21.60;;;12.80;;
40787;SDS011;26497;52.494;7.546;2022-11-20T10:43:12;26.55;;;13.93;;
40787;SDS011;26497;52.494;7.546;2022-11-20T10:45:49;26.02;;;13.02;;
40787;SDS011;26497;52.494;7.546;2022-11-20T10:48:23;25.25;;;13.07;;
40787;SDS011;26497;52.494;7.546;2022-11-20T10:50:57;23.98;;;13.55;;
40787;SDS011;26497;52.494;7.546;2022-11-20T10:56:34;29.42;;;14.30;;
40787;SDS011;26497;52.494;7.546;2022-11-20T11:02:21;25.23;;;12.57;;
40787;SDS011;26497;52.494;7.546;2022-11-20T11:04:50;23.10;;;13.25;;
40787;SDS011;26497;52.494;7.546;2022-11-20T11:07:20;36.80;;;13.60;;
40787;SDS011;26497;52.494;7.546;2022-11-20T11:09:51;22.23;;;11.55;;
40787;SDS011;26497;52.494;7.546;2022-11-20T11:12:21;23.98;;;11.60;;
40787;SDS011;26497;52.494;7.546;2022-11-20T11:14:51;21.70;;;13.27;;
40787;SDS011;26497;52.494;7.546;2022-11-20T11:17:23;18.40;;;11.60;;
40787;SDS011;26497;52.494;7.546;2022-11-20T11:20:03;20.67;;;12.10;;
40787;SDS011;26497;52.494;7.546;2022-11-20T11:22:42;20.75;;;12.35;;
40787;SDS011;26497;52.494;7.546;2022-11-20T11:25:19;16.55;;;12.23;;
40787;SDS011;26497;52.494;7.546;2022-11-20T11:27:56;18.52;;;12.38;;
40787;SDS011;26497;52.494;7.546;2022-11-20T11:30:25;22.48;;;14.13;;
40787;SDS011;26497;52.494;7.546;2022-11-20T11:33:08;25.88;;;12.23;;
40787;SDS011;26497;52.494;7.546;2022-11-20T11:35:43;18.50;;;11.75;;
40787;SDS011;26497;52.494;7.546;2022-11-20T11:38:14;23.02;;;14.98;;
40787;SDS011;26497;52.494;7.546;2022-11-20T11:40:55;20.38;;;14.57;;
40787;SDS011;26497;52.494;7.546;2022-11-20T11:43:24;20.20;;;13.23;;
40787;SDS011;26497;52.494;7.546;2022-11-20T11:46:22;16.23;;;12.10;;
40787;SDS011;26497;52.494;7.546;2022-11-20T11:48:58;18.63;;;12.85;;
40787;SDS011;26497;52.494;7.546;2022-11-20T11:51:28;23.58;;;13.02;;
40787;SDS011;26497;52.494;7.546;2022-11-20T11:54:05;23.10;;;13.48;;
40787;SDS011;26497;52.494;7.546;2022-11-20T11:56:43;24.80;;;14.50;;
40787;SDS011;26497;52.494;7.546;2022-11-20T11:59:12;23.52;;;13.02;;
40787;SDS011;26497;52.494;7.546;2022-11-20T12:01:50;23.05;;;13.07;;
40787;SDS011;26497;52.494;7.546;2022-11-20T12:04:23;25.15;;;13.05;;
40787;SDS011;26497;52.494;7.546;2022-11-20T12:07:08;65.80;;;28.58;;
40787;SDS011;26497;52.494;7.546;2022-11-20T12:09:43;29.13;;;15.20;;
40787;SDS011;26497;52.494;7.546;2022-11-20T12:12:17;25.95;;;13.30;;
40787;SDS011;26497;52.494;7.546;2022-11-20T12:14:48;24.13;;;12.38;;
40787;SDS011;26497;52.494;7.546;2022-11-20T12:17:19;24.13;;;12.98;;
40787;SDS011;26497;52.494;7.546;2022-11-20T12:19:47;26.17;;;13.55;;
40787;SDS011;26497;52.494;7.546;2022-11-20T12:22:17;26.33;;;13.55;;
40787;SDS011;26497;52.494;7.546;2022-11-20T12:24:57;29.80;;;14.90;;
40787;SDS011;26497;52.494;7.546;2022-11-20T12:27:44;28.08;;;15.63;;
40787;SDS011;26497;52.494;7.546;2022-11-20T12:30:24;26.98;;;14.65;;
40787;SDS011;26497;52.494;7.546;2022-11-20T12:32:55;29.40;;;15.55;;
40787;SDS011;26497;52.494;7.546;2022-11-20T12:35:47;25.58;;;14.02;;
40787;SDS011;26497;52.494;7.546;2022-11-20T12:38:37;30.27;;;16.85;;
40787;SDS011;26497;52.494;7.546;2022-11-20T12:41:39;26.67;;;13.73;;
40787;SDS011;26497;52.494;7.546;2022-11-20T12:44:49;23.30;;;12.88;;
40787;SDS011;26497;52.494;7.546;2022-11-20T12:47:45;26.83;;;12.32;;
40787;SDS011;26497;52.494;7.546;2022-11-20T12:50:41;27.50;;;12.57;;
40787;SDS011;26497;52.494;7.546;2022-11-20T12:53:30;27.65;;;15.13;;
40787;SDS011;26497;52.494;7.546;2022-11-20T12:56:17;29.08;;;12.50;;
40787;SDS011;26497;52.494;7.546;2022-11-20T12:58:58;26.33;;;12.30;;
40787;SDS011;26497;52.494;7.546;2022-11-20T13:01:38;29.70;;;14.63;;
40787;SDS011;26497;52.494;7.546;2022-11-20T13:04:17;22.58;;;11.20;;
40787;SDS011;26497;52.494;7.546;2022-11-20T13:07:00;23.90;;;13.38;;
40787;SDS011;26497;52.494;7.546;2022-11-20T13:09:29;24.23;;;11.60;;
40787;SDS011;26497;52.494;7.546;2022-11-20T13:12:01;28.08;;;14.05;;
40787;SDS011;26497;52.494;7.546;2022-11-20T13:14:35;26.75;;;13.23;;
40787;SDS011;26497;52.494;7.546;2022-11-20T13:19:37;26.50;;;13.13;;
40787;SDS011;26497;52.494;7.546;2022-11-20T13:22:07;29.58;;;12.65;;
40787;SDS011;26497;52.494;7.546;2022-11-20T13:24:35;34.00;;;13.68;;
40787;SDS011;26497;52.494;7.546;2022-11-20T13:27:03;29.90;;;15.07;;
40787;SDS011;26497;52.494;7.546;2022-11-20T13:29:45;35.97;;;13.18;;
40787;SDS011;26497;52.494;7.546;2022-11-20T13:32:24;28.25;;;12.20;;
40787;SDS011;26497;52.494;7.546;2022-11-20T13:34:51;26.48;;;12.13;;
40787;SDS011;26497;52.494;7.546;2022-11-20T13:37:26;25.55;;;12.98;;
40787;SDS011;26497;52.494;7.546;2022-11-20T13:40:11;29.50;;;14.20;;
40787;SDS011;26497;52.494;7.546;2022-11-20T13:42:54;28.80;;;12.35;;
40787;SDS011;26497;52.494;7.546;2022-11-20T13:45:28;26.50;;;12.05;;
40787;SDS011;26497;52.494;7.546;2022-11-20T13:47:57;30.95;;;14.95;;
40787;SDS011;26497;52.494;7.546;2022-11-20T13:50:38;34.58;;;15.60;;
40787;SDS011;26497;52.494;7.546;2022-11-20T13:53:17;28.00;;;12.23;;
40787;SDS011;26497;52.494;7.546;2022-11-20T13:56:01;30.98;;;12.32;;
40787;SDS011;26497;52.494;7.546;2022-11-20T13:58:40;30.38;;;13.52;;
40787;SDS011;26497;52.494;7.546;2022-11-20T14:01:20;38.50;;;14.30;;
40787;SDS011;26497;52.494;7.546;2022-11-20T14:03:49;29.60;;;13.20;;
40787;SDS011;26497;52.494;7.546;2022-11-20T14:06:20;28.58;;;15.00;;
40787;SDS011;26497;52.494;7.546;2022-11-20T14:08:55;33.47;;;13.73;;
40787;SDS011;26497;52.494;7.546;2022-11-20T14:11:23;37.92;;;16.27;;
40787;SDS011;26497;52.494;7.546;2022-11-20T14:13:54;32.40;;;13.38;;
40787;SDS011;26497;52.494;7.546;2022-11-20T14:18:52;27.00;;;11.30;;
40787;SDS011;26497;52.494;7.546;2022-11-20T14:21:24;28.02;;;14.50;;
40787;SDS011;26497;52.494;7.546;2022-11-20T14:24:02;26.17;;;12.13;;
40787;SDS011;26497;52.494;7.546;2022-11-20T14:26:30;26.80;;;12.95;;
40787;SDS011;26497;52.494;7.546;2022-11-20T14:28:58;27.02;;;12.57;;
40787;SDS011;26497;52.494;7.546;2022-11-20T14:31:26;33.80;;;13.52;;
40787;SDS011;26497;52.494;7.546;2022-11-20T14:33:54;28.65;;;15.07;;
40787;SDS011;26497;52.494;7.546;2022-11-20T14:36:23;27.33;;;13.52;;
40787;SDS011;26497;52.494;7.546;2022-11-20T14:38:51;30.88;;;15.27;;
40787;SDS011;26497;52.494;7.546;2022-11-20T14:41:21;34.60;;;13.45;;
40787;SDS011;26497;52.494;7.546;2022-11-20T14:43:50;35.97;;;15.77;;
40787;SDS011;26497;52.494;7.546;2022-11-20T14:46:22;29.90;;;14.27;;
40787;SDS011;26497;52.494;7.546;2022-11-20T14:48:51;28.88;;;14.90;;
40787;SDS011;26497;52.494;7.546;2022-11-20T14:51:29;29.15;;;13.68;;
40787;SDS011;26497;52.494;7.546;2022-11-20T14:54:08;30.30;;;14.18;;
40787;SDS011;26497;52.494;7.546;2022-11-20T14:56:38;28.75;;;13.15;;
40787;SDS011;26497;52.494;7.546;2022-11-20T14:59:05;38.20;;;14.25;;
40787;SDS011;26497;52.494;7.546;2022-11-20T15:01:34;34.25;;;15.43;;